sensor_id;sensor_type;location;lat;lon;timestamp;P1;durP1;ratioP1;P2;durP2;ratioP2
85377;SDS011;75782;48.632;10.230;2024-02-26T00:02:10;8.07;;;5.80;;
85377;SDS011;75782;48.632;10.230;2024-02-26T00:04:37;8.17;;;5.23;;
85377;SDS011;75782;48.632;10.230;2024-02-26T00:07:03;8.80;;;5.20;;
85377;SDS011;75782;48.632;10.230;2024-02-26T00:09:31;7.37;;;5.40;;
85377;SDS011;75782;48.632;10.230;2024-02-26T00:11:58;9.80;;;5.80;;
85377;SDS011;75782;48.632;10.230;2024-02-26T00:14:25;7.57;;;5.10;;
85377;SDS011;75782;48.632;10.230;2024-02-26T00:16:51;7.70;;;6.07;;
85377;SDS011;75782;48.632;10.230;2024-02-26T00:19:18;7.23;;;6.13;;
85377;SDS011;75782;48.632;10.230;2024-02-26T00:21:44;8.47;;;6.50;;
85377;SDS011;75782;48.632;10.230;2024-02-26T00:24:11;6.20;;;5.70;;
85377;SDS011;75782;48.632;10.230;2024-02-26T00:26:38;7.87;;;5.63;;
85377;SDS011;75782;48.632;10.230;2024-02-26T00:29:04;7.10;;;5.10;;
85377;SDS011;75782;48.632;10.230;2024-02-26T00:31:32;8.37;;;5.53;;
85377;SDS011;75782;48.632;10.230;2024-02-26T00:33:59;9.03;;;6.03;;
85377;SDS011;75782;48.632;10.230;2024-02-26T00:36:26;7.90;;;5.97;;
85377;SDS011;75782;48.632;10.230;2024-02-26T00:38:53;6.87;;;5.80;;
85377;SDS011;75782;48.632;10.230;2024-02-26T00:41:20;8.37;;;5.63;;
85377;SDS011;75782;48.632;10.230;2024-02-26T00:43:46;7.53;;;5.67;;
85377;SDS011;75782;48.632;10.230;2024-02-26T00:46:13;8.80;;;5.83;;
85377;SDS011;75782;48.632;10.230;2024-02-26T00:48:39;7.83;;;6.20;;
85377;SDS011;75782;48.632;10.230;2024-02-26T00:51:06;9.37;;;6.97;;
85377;SDS011;75782;48.632;10.230;2024-02-26T00:53:33;7.47;;;6.47;;
85377;SDS011;75782;48.632;10.230;2024-02-26T00:56:00;9.40;;;6.47;;
85377;SDS011;75782;48.632;10.230;2024-02-26T00:58:27;8.57;;;6.83;;
85377;SDS011;75782;48.632;10.230;2024-02-26T01:00:53;7.60;;;6.27;;
85377;SDS011;75782;48.632;10.230;2024-02-26T01:03:20;9.63;;;7.17;;
85377;SDS011;75782;48.632;10.230;2024-02-26T01:05:46;9.93;;;7.10;;
85377;SDS011;75782;48.632;10.230;2024-02-26T01:08:13;8.90;;;6.47;;
85377;SDS011;75782;48.632;10.230;2024-02-26T01:10:39;12.27;;;7.37;;
85377;SDS011;75782;48.632;10.230;2024-02-26T01:13:06;7.97;;;6.07;;
85377;SDS011;75782;48.632;10.230;2024-02-26T01:15:33;9.13;;;7.10;;
85377;SDS011;75782;48.632;10.230;2024-02-26T01:17:59;12.17;;;7.27;;
85377;SDS011;75782;48.632;10.230;2024-02-26T01:20:26;9.73;;;7.30;;
85377;SDS011;75782;48.632;10.230;2024-02-26T01:22:53;12.80;;;6.93;;
85377;SDS011;75782;48.632;10.230;2024-02-26T01:25:20;11.80;;;8.17;;
85377;SDS011;75782;48.632;10.230;2024-02-26T01:27:47;7.53;;;6.43;;
85377;SDS011;75782;48.632;10.230;2024-02-26T01:30:14;10.27;;;7.37;;
85377;SDS011;75782;48.632;10.230;2024-02-26T01:32:40;9.80;;;6.87;;
85377;SDS011;75782;48.632;10.230;2024-02-26T01:35:07;10.10;;;7.10;;
85377;SDS011;75782;48.632;10.230;2024-02-26T01:37:34;9.30;;;6.93;;
85377;SDS011;75782;48.632;10.230;2024-02-26T01:40:00;10.47;;;7.20;;
85377;SDS011;75782;48.632;10.230;2024-02-26T01:42:28;9.17;;;6.67;;
85377;SDS011;75782;48.632;10.230;2024-02-26T01:44:55;11.00;;;7.07;;
85377;SDS011;75782;48.632;10.230;2024-02-26T01:47:22;8.77;;;7.40;;
85377;SDS011;75782;48.632;10.230;2024-02-26T01:49:49;7.93;;;7.13;;
85377;SDS011;75782;48.632;10.230;2024-02-26T01:52:16;9.60;;;6.90;;
85377;SDS011;75782;48.632;10.230;2024-02-26T01:54:44;8.33;;;7.37;;
85377;SDS011;75782;48.632;10.230;2024-02-26T01:57:10;9.20;;;7.20;;
85377;SDS011;75782;48.632;10.230;2024-02-26T01:59:37;12.07;;;7.77;;
85377;SDS011;75782;48.632;10.230;2024-02-26T02:02:05;12.80;;;7.73;;
85377;SDS011;75782;48.632;10.230;2024-02-26T02:04:31;11.77;;;8.00;;
85377;SDS011;75782;48.632;10.230;2024-02-26T02:06:58;9.10;;;7.43;;
85377;SDS011;75782;48.632;10.230;2024-02-26T02:09:24;11.60;;;8.00;;
85377;SDS011;75782;48.632;10.230;2024-02-26T02:11:51;12.10;;;8.13;;
85377;SDS011;75782;48.632;10.230;2024-02-26T02:14:17;11.00;;;7.40;;
85377;SDS011;75782;48.632;10.230;2024-02-26T02:16:45;14.00;;;8.40;;
85377;SDS011;75782;48.632;10.230;2024-02-26T02:19:12;12.37;;;7.30;;
85377;SDS011;75782;48.632;10.230;2024-02-26T02:21:39;12.50;;;7.73;;
85377;SDS011;75782;48.632;10.230;2024-02-26T02:24:05;13.60;;;8.47;;
85377;SDS011;75782;48.632;10.230;2024-02-26T02:26:32;12.43;;;8.30;;
85377;SDS011;75782;48.632;10.230;2024-02-26T02:28:58;12.50;;;7.90;;
85377;SDS011;75782;48.632;10.230;2024-02-26T02:31:26;11.33;;;7.90;;
85377;SDS011;75782;48.632;10.230;2024-02-26T02:33:53;12.10;;;7.90;;
85377;SDS011;75782;48.632;10.230;2024-02-26T02:36:20;10.90;;;8.30;;
85377;SDS011;75782;48.632;10.230;2024-02-26T02:38:48;14.70;;;8.37;;
85377;SDS011;75782;48.632;10.230;2024-02-26T02:41:15;10.10;;;7.37;;
85377;SDS011;75782;48.632;10.230;2024-02-26T02:43:42;11.60;;;8.40;;
85377;SDS011;75782;48.632;10.230;2024-02-26T02:46:08;11.83;;;8.60;;
85377;SDS011;75782;48.632;10.230;2024-02-26T02:48:35;11.80;;;7.83;;
85377;SDS011;75782;48.632;10.230;2024-02-26T02:51:02;11.13;;;7.70;;
85377;SDS011;75782;48.632;10.230;2024-02-26T02:53:30;12.17;;;7.80;;
85377;SDS011;75782;48.632;10.230;2024-02-26T02:55:57;11.10;;;7.70;;
85377;SDS011;75782;48.632;10.230;2024-02-26T02:58:25;11.90;;;8.00;;
85377;SDS011;75782;48.632;10.230;2024-02-26T03:00:51;11.67;;;7.30;;
85377;SDS011;75782;48.632;10.230;2024-02-26T03:03:18;9.57;;;6.83;;
85377;SDS011;75782;48.632;10.230;2024-02-26T03:05:45;11.93;;;8.10;;
85377;SDS011;75782;48.632;10.230;2024-02-26T03:08:11;10.60;;;7.00;;
85377;SDS011;75782;48.632;10.230;2024-02-26T03:10:38;8.80;;;7.00;;
85377;SDS011;75782;48.632;10.230;2024-02-26T03:13:04;12.40;;;8.40;;
85377;SDS011;75782;48.632;10.230;2024-02-26T03:15:31;13.17;;;8.00;;
85377;SDS011;75782;48.632;10.230;2024-02-26T03:17:58;11.30;;;7.50;;
85377;SDS011;75782;48.632;10.230;2024-02-26T03:20:24;10.27;;;6.93;;
85377;SDS011;75782;48.632;10.230;2024-02-26T03:22:51;10.27;;;7.70;;
85377;SDS011;75782;48.632;10.230;2024-02-26T03:25:18;9.43;;;7.07;;
85377;SDS011;75782;48.632;10.230;2024-02-26T03:27:45;11.83;;;8.03;;
85377;SDS011;75782;48.632;10.230;2024-02-26T03:30:13;12.80;;;7.93;;
85377;SDS011;75782;48.632;10.230;2024-02-26T03:32:40;11.10;;;8.20;;
85377;SDS011;75782;48.632;10.230;2024-02-26T03:35:06;12.53;;;8.30;;
85377;SDS011;75782;48.632;10.230;2024-02-26T03:37:33;13.73;;;7.97;;
85377;SDS011;75782;48.632;10.230;2024-02-26T03:40:00;12.00;;;7.67;;
85377;SDS011;75782;48.632;10.230;2024-02-26T03:42:26;12.30;;;8.00;;
85377;SDS011;75782;48.632;10.230;2024-02-26T03:44:54;14.27;;;8.50;;
85377;SDS011;75782;48.632;10.230;2024-02-26T03:47:21;11.20;;;8.40;;
85377;SDS011;75782;48.632;10.230;2024-02-26T03:49:48;10.20;;;7.67;;
85377;SDS011;75782;48.632;10.230;2024-02-26T03:52:16;11.40;;;7.10;;
85377;SDS011;75782;48.632;10.230;2024-02-26T03:54:43;11.93;;;8.40;;
85377;SDS011;75782;48.632;10.230;2024-02-26T03:57:10;12.73;;;7.50;;
85377;SDS011;75782;48.632;10.230;2024-02-26T03:59:36;10.03;;;7.37;;
85377;SDS011;75782;48.632;10.230;2024-02-26T04:02:03;10.40;;;7.27;;
85377;SDS011;75782;48.632;10.230;2024-02-26T04:04:29;12.30;;;7.47;;
85377;SDS011;75782;48.632;10.230;2024-02-26T04:06:56;12.10;;;8.33;;
85377;SDS011;75782;48.632;10.230;2024-02-26T04:09:23;11.20;;;7.70;;
85377;SDS011;75782;48.632;10.230;2024-02-26T04:11:49;10.30;;;7.73;;
85377;SDS011;75782;48.632;10.230;2024-02-26T04:14:16;12.47;;;7.77;;
85377;SDS011;75782;48.632;10.230;2024-02-26T04:16:43;12.50;;;7.73;;
85377;SDS011;75782;48.632;10.230;2024-02-26T04:19:10;11.80;;;7.10;;
85377;SDS011;75782;48.632;10.230;2024-02-26T04:21:37;11.93;;;7.83;;
85377;SDS011;75782;48.632;10.230;2024-02-26T04:24:04;9.43;;;7.10;;
85377;SDS011;75782;48.632;10.230;2024-02-26T04:26:30;13.90;;;8.17;;
85377;SDS011;75782;48.632;10.230;2024-02-26T04:28:58;13.50;;;9.00;;
85377;SDS011;75782;48.632;10.230;2024-02-26T04:31:25;12.73;;;8.97;;
85377;SDS011;75782;48.632;10.230;2024-02-26T04:33:52;12.20;;;8.57;;
85377;SDS011;75782;48.632;10.230;2024-02-26T04:36:19;14.60;;;7.93;;
85377;SDS011;75782;48.632;10.230;2024-02-26T04:38:46;13.53;;;9.37;;
85377;SDS011;75782;48.632;10.230;2024-02-26T04:41:12;13.73;;;10.07;;
85377;SDS011;75782;48.632;10.230;2024-02-26T04:43:39;14.83;;;9.00;;
85377;SDS011;75782;48.632;10.230;2024-02-26T04:46:05;13.33;;;8.27;;
85377;SDS011;75782;48.632;10.230;2024-02-26T04:48:33;16.97;;;9.40;;
85377;SDS011;75782;48.632;10.230;2024-02-26T04:51:00;14.70;;;8.10;;
85377;SDS011;75782;48.632;10.230;2024-02-26T04:53:27;13.80;;;9.87;;
85377;SDS011;75782;48.632;10.230;2024-02-26T04:55:53;15.43;;;8.90;;
85377;SDS011;75782;48.632;10.230;2024-02-26T04:58:20;13.90;;;9.50;;
85377;SDS011;75782;48.632;10.230;2024-02-26T05:00:47;12.07;;;9.33;;
85377;SDS011;75782;48.632;10.230;2024-02-26T05:03:13;14.00;;;9.50;;
85377;SDS011;75782;48.632;10.230;2024-02-26T05:05:41;12.73;;;9.57;;
85377;SDS011;75782;48.632;10.230;2024-02-26T05:08:08;14.87;;;11.03;;
85377;SDS011;75782;48.632;10.230;2024-02-26T05:10:34;15.00;;;9.50;;
85377;SDS011;75782;48.632;10.230;2024-02-26T05:13:02;17.33;;;10.20;;
85377;SDS011;75782;48.632;10.230;2024-02-26T05:15:28;15.77;;;10.67;;
85377;SDS011;75782;48.632;10.230;2024-02-26T05:17:55;15.33;;;10.20;;
85377;SDS011;75782;48.632;10.230;2024-02-26T05:20:22;13.40;;;9.37;;
85377;SDS011;75782;48.632;10.230;2024-02-26T05:22:49;14.20;;;9.00;;
85377;SDS011;75782;48.632;10.230;2024-02-26T05:25:15;17.37;;;9.23;;
85377;SDS011;75782;48.632;10.230;2024-02-26T05:27:42;16.93;;;10.23;;
85377;SDS011;75782;48.632;10.230;2024-02-26T05:30:08;18.07;;;11.00;;
85377;SDS011;75782;48.632;10.230;2024-02-26T05:32:35;16.37;;;10.40;;
85377;SDS011;75782;48.632;10.230;2024-02-26T05:35:03;17.47;;;11.00;;
85377;SDS011;75782;48.632;10.230;2024-02-26T05:37:30;16.97;;;10.57;;
85377;SDS011;75782;48.632;10.230;2024-02-26T05:39:56;18.20;;;10.47;;
85377;SDS011;75782;48.632;10.230;2024-02-26T05:42:23;15.90;;;9.70;;
85377;SDS011;75782;48.632;10.230;2024-02-26T05:44:49;15.03;;;10.47;;
85377;SDS011;75782;48.632;10.230;2024-02-26T05:47:17;15.37;;;10.20;;
85377;SDS011;75782;48.632;10.230;2024-02-26T05:49:43;16.90;;;11.20;;
85377;SDS011;75782;48.632;10.230;2024-02-26T05:52:10;15.60;;;10.93;;
85377;SDS011;75782;48.632;10.230;2024-02-26T05:54:36;17.30;;;10.90;;
85377;SDS011;75782;48.632;10.230;2024-02-26T05:57:03;20.10;;;11.17;;
85377;SDS011;75782;48.632;10.230;2024-02-26T05:59:30;17.60;;;11.40;;
85377;SDS011;75782;48.632;10.230;2024-02-26T06:01:57;17.13;;;11.27;;
85377;SDS011;75782;48.632;10.230;2024-02-26T06:04:24;19.10;;;12.40;;
85377;SDS011;75782;48.632;10.230;2024-02-26T06:06:50;15.40;;;11.60;;
85377;SDS011;75782;48.632;10.230;2024-02-26T06:09:17;18.73;;;11.30;;
85377;SDS011;75782;48.632;10.230;2024-02-26T06:11:44;16.60;;;12.30;;
85377;SDS011;75782;48.632;10.230;2024-02-26T06:14:11;19.50;;;12.47;;
85377;SDS011;75782;48.632;10.230;2024-02-26T06:16:37;18.20;;;12.83;;
85377;SDS011;75782;48.632;10.230;2024-02-26T06:19:04;21.87;;;11.87;;
85377;SDS011;75782;48.632;10.230;2024-02-26T06:21:31;18.73;;;11.20;;
85377;SDS011;75782;48.632;10.230;2024-02-26T06:23:57;17.37;;;11.50;;
85377;SDS011;75782;48.632;10.230;2024-02-26T06:26:25;15.53;;;10.20;;
85377;SDS011;75782;48.632;10.230;2024-02-26T06:28:51;16.03;;;10.10;;
85377;SDS011;75782;48.632;10.230;2024-02-26T06:31:18;16.10;;;10.33;;
85377;SDS011;75782;48.632;10.230;2024-02-26T06:33:44;16.43;;;11.00;;
85377;SDS011;75782;48.632;10.230;2024-02-26T06:36:12;16.03;;;11.00;;
85377;SDS011;75782;48.632;10.230;2024-02-26T06:38:39;17.90;;;11.67;;
85377;SDS011;75782;48.632;10.230;2024-02-26T06:41:06;18.00;;;11.23;;
85377;SDS011;75782;48.632;10.230;2024-02-26T06:43:33;18.10;;;12.03;;
85377;SDS011;75782;48.632;10.230;2024-02-26T06:46:00;16.30;;;10.93;;
85377;SDS011;75782;48.632;10.230;2024-02-26T06:48:26;20.73;;;12.60;;
85377;SDS011;75782;48.632;10.230;2024-02-26T06:50:54;16.60;;;9.83;;
85377;SDS011;75782;48.632;10.230;2024-02-26T06:53:21;16.80;;;11.17;;
85377;SDS011;75782;48.632;10.230;2024-02-26T06:55:48;18.20;;;11.30;;
85377;SDS011;75782;48.632;10.230;2024-02-26T06:58:15;16.90;;;10.90;;
85377;SDS011;75782;48.632;10.230;2024-02-26T07:00:41;16.30;;;11.30;;
85377;SDS011;75782;48.632;10.230;2024-02-26T07:03:08;17.77;;;11.70;;
85377;SDS011;75782;48.632;10.230;2024-02-26T07:05:35;14.87;;;10.93;;
85377;SDS011;75782;48.632;10.230;2024-02-26T07:08:01;18.53;;;11.60;;
85377;SDS011;75782;48.632;10.230;2024-02-26T07:10:29;20.43;;;12.30;;
85377;SDS011;75782;48.632;10.230;2024-02-26T07:12:56;14.70;;;11.00;;
85377;SDS011;75782;48.632;10.230;2024-02-26T07:15:23;16.03;;;11.17;;
85377;SDS011;75782;48.632;10.230;2024-02-26T07:17:49;17.67;;;12.10;;
85377;SDS011;75782;48.632;10.230;2024-02-26T07:20:16;17.17;;;12.80;;
85377;SDS011;75782;48.632;10.230;2024-02-26T07:22:43;17.70;;;11.23;;
85377;SDS011;75782;48.632;10.230;2024-02-26T07:25:10;22.27;;;12.37;;
85377;SDS011;75782;48.632;10.230;2024-02-26T07:27:37;19.33;;;13.40;;
85377;SDS011;75782;48.632;10.230;2024-02-26T07:30:04;20.33;;;11.53;;
85377;SDS011;75782;48.632;10.230;2024-02-26T07:32:31;17.67;;;11.90;;
85377;SDS011;75782;48.632;10.230;2024-02-26T07:34:58;18.10;;;11.00;;
85377;SDS011;75782;48.632;10.230;2024-02-26T07:37:24;15.60;;;11.17;;
85377;SDS011;75782;48.632;10.230;2024-02-26T07:39:52;17.50;;;11.37;;
85377;SDS011;75782;48.632;10.230;2024-02-26T07:42:18;19.80;;;11.73;;
85377;SDS011;75782;48.632;10.230;2024-02-26T07:44:45;18.80;;;11.53;;
85377;SDS011;75782;48.632;10.230;2024-02-26T07:47:12;20.30;;;12.53;;
85377;SDS011;75782;48.632;10.230;2024-02-26T07:49:39;13.33;;;10.40;;
85377;SDS011;75782;48.632;10.230;2024-02-26T07:52:05;15.43;;;11.67;;
85377;SDS011;75782;48.632;10.230;2024-02-26T07:54:31;14.27;;;10.30;;
85377;SDS011;75782;48.632;10.230;2024-02-26T07:56:58;13.60;;;10.53;;
85377;SDS011;75782;48.632;10.230;2024-02-26T07:59:26;17.50;;;10.60;;
85377;SDS011;75782;48.632;10.230;2024-02-26T08:01:53;15.63;;;10.90;;
85377;SDS011;75782;48.632;10.230;2024-02-26T08:04:20;15.43;;;10.63;;
85377;SDS011;75782;48.632;10.230;2024-02-26T08:06:47;17.13;;;10.47;;
85377;SDS011;75782;48.632;10.230;2024-02-26T08:09:15;13.03;;;10.23;;
85377;SDS011;75782;48.632;10.230;2024-02-26T08:11:41;15.27;;;10.90;;
85377;SDS011;75782;48.632;10.230;2024-02-26T08:14:08;13.47;;;10.43;;
85377;SDS011;75782;48.632;10.230;2024-02-26T08:16:34;14.47;;;10.37;;
85377;SDS011;75782;48.632;10.230;2024-02-26T08:19:01;12.47;;;10.13;;
85377;SDS011;75782;48.632;10.230;2024-02-26T08:21:28;14.47;;;10.03;;
85377;SDS011;75782;48.632;10.230;2024-02-26T08:23:55;14.23;;;9.63;;
85377;SDS011;75782;48.632;10.230;2024-02-26T08:26:22;12.53;;;9.63;;
85377;SDS011;75782;48.632;10.230;2024-02-26T08:28:48;13.03;;;9.53;;
85377;SDS011;75782;48.632;10.230;2024-02-26T08:31:15;15.30;;;11.30;;
85377;SDS011;75782;48.632;10.230;2024-02-26T08:33:42;11.30;;;10.03;;
85377;SDS011;75782;48.632;10.230;2024-02-26T08:36:09;11.97;;;9.80;;
85377;SDS011;75782;48.632;10.230;2024-02-26T08:38:36;10.63;;;9.23;;
85377;SDS011;75782;48.632;10.230;2024-02-26T08:41:02;11.30;;;9.27;;
85377;SDS011;75782;48.632;10.230;2024-02-26T08:43:29;11.47;;;9.80;;
85377;SDS011;75782;48.632;10.230;2024-02-26T08:45:57;13.10;;;9.10;;
85377;SDS011;75782;48.632;10.230;2024-02-26T08:48:23;15.07;;;9.50;;
85377;SDS011;75782;48.632;10.230;2024-02-26T08:50:50;10.93;;;9.60;;
85377;SDS011;75782;48.632;10.230;2024-02-26T08:53:16;12.13;;;9.60;;
85377;SDS011;75782;48.632;10.230;2024-02-26T08:55:44;14.23;;;9.93;;
85377;SDS011;75782;48.632;10.230;2024-02-26T08:58:10;14.97;;;9.80;;
85377;SDS011;75782;48.632;10.230;2024-02-26T09:00:37;13.27;;;10.00;;
85377;SDS011;75782;48.632;10.230;2024-02-26T09:03:04;11.30;;;8.63;;
85377;SDS011;75782;48.632;10.230;2024-02-26T09:05:32;12.27;;;9.93;;
85377;SDS011;75782;48.632;10.230;2024-02-26T09:07:59;13.33;;;10.17;;
85377;SDS011;75782;48.632;10.230;2024-02-26T09:10:26;12.80;;;8.97;;
85377;SDS011;75782;48.632;10.230;2024-02-26T09:12:52;13.77;;;9.90;;
85377;SDS011;75782;48.632;10.230;2024-02-26T09:15:19;14.47;;;10.23;;
85377;SDS011;75782;48.632;10.230;2024-02-26T09:17:46;12.90;;;9.60;;
85377;SDS011;75782;48.632;10.230;2024-02-26T09:20:14;11.17;;;7.87;;
85377;SDS011;75782;48.632;10.230;2024-02-26T09:22:41;12.10;;;9.30;;
85377;SDS011;75782;48.632;10.230;2024-02-26T09:25:07;14.13;;;8.00;;
85377;SDS011;75782;48.632;10.230;2024-02-26T09:27:35;14.10;;;9.30;;
85377;SDS011;75782;48.632;10.230;2024-02-26T09:30:02;11.97;;;8.63;;
85377;SDS011;75782;48.632;10.230;2024-02-26T09:32:29;9.03;;;7.30;;
85377;SDS011;75782;48.632;10.230;2024-02-26T09:34:55;12.20;;;8.57;;
85377;SDS011;75782;48.632;10.230;2024-02-26T09:37:22;13.13;;;8.70;;
85377;SDS011;75782;48.632;10.230;2024-02-26T09:39:49;12.53;;;8.70;;
85377;SDS011;75782;48.632;10.230;2024-02-26T09:42:18;12.93;;;9.50;;
85377;SDS011;75782;48.632;10.230;2024-02-26T09:44:44;10.33;;;8.60;;
85377;SDS011;75782;48.632;10.230;2024-02-26T09:47:11;10.33;;;8.20;;
85377;SDS011;75782;48.632;10.230;2024-02-26T09:49:40;10.93;;;8.37;;
85377;SDS011;75782;48.632;10.230;2024-02-26T09:52:06;12.17;;;8.57;;
85377;SDS011;75782;48.632;10.230;2024-02-26T09:54:33;11.30;;;8.53;;
85377;SDS011;75782;48.632;10.230;2024-02-26T09:57:00;10.23;;;7.80;;
85377;SDS011;75782;48.632;10.230;2024-02-26T09:59:27;14.03;;;9.23;;
85377;SDS011;75782;48.632;10.230;2024-02-26T10:01:54;10.33;;;7.90;;
85377;SDS011;75782;48.632;10.230;2024-02-26T10:04:21;10.47;;;7.30;;
85377;SDS011;75782;48.632;10.230;2024-02-26T10:06:48;13.57;;;8.60;;
85377;SDS011;75782;48.632;10.230;2024-02-26T10:09:16;11.57;;;7.60;;
85377;SDS011;75782;48.632;10.230;2024-02-26T10:11:42;9.33;;;7.90;;
85377;SDS011;75782;48.632;10.230;2024-02-26T10:14:09;9.60;;;7.87;;
85377;SDS011;75782;48.632;10.230;2024-02-26T10:16:35;14.43;;;8.47;;
85377;SDS011;75782;48.632;10.230;2024-02-26T10:19:03;9.93;;;7.70;;
85377;SDS011;75782;48.632;10.230;2024-02-26T10:21:30;9.87;;;8.07;;
85377;SDS011;75782;48.632;10.230;2024-02-26T10:23:58;10.70;;;8.27;;
85377;SDS011;75782;48.632;10.230;2024-02-26T10:26:24;11.43;;;8.70;;
85377;SDS011;75782;48.632;10.230;2024-02-26T10:28:51;10.63;;;8.40;;
85377;SDS011;75782;48.632;10.230;2024-02-26T10:31:17;10.03;;;8.13;;
85377;SDS011;75782;48.632;10.230;2024-02-26T10:33:45;9.13;;;7.53;;
85377;SDS011;75782;48.632;10.230;2024-02-26T10:36:11;10.27;;;7.80;;
85377;SDS011;75782;48.632;10.230;2024-02-26T10:38:38;8.50;;;7.40;;
85377;SDS011;75782;48.632;10.230;2024-02-26T10:41:06;7.03;;;6.33;;
85377;SDS011;75782;48.632;10.230;2024-02-26T10:43:33;8.30;;;7.10;;
85377;SDS011;75782;48.632;10.230;2024-02-26T10:46:00;8.13;;;6.50;;
85377;SDS011;75782;48.632;10.230;2024-02-26T10:48:27;8.50;;;6.80;;
85377;SDS011;75782;48.632;10.230;2024-02-26T10:50:53;9.27;;;6.77;;
85377;SDS011;75782;48.632;10.230;2024-02-26T10:53:20;12.83;;;7.27;;
85377;SDS011;75782;48.632;10.230;2024-02-26T10:55:48;9.10;;;7.30;;
85377;SDS011;75782;48.632;10.230;2024-02-26T10:58:21;10.57;;;8.10;;
85377;SDS011;75782;48.632;10.230;2024-02-26T11:00:47;9.67;;;7.40;;
85377;SDS011;75782;48.632;10.230;2024-02-26T11:03:14;9.20;;;7.63;;
85377;SDS011;75782;48.632;10.230;2024-02-26T11:05:41;10.37;;;7.00;;
85377;SDS011;75782;48.632;10.230;2024-02-26T11:08:08;9.03;;;7.00;;
85377;SDS011;75782;48.632;10.230;2024-02-26T11:10:34;7.80;;;6.17;;
85377;SDS011;75782;48.632;10.230;2024-02-26T11:13:01;7.40;;;6.20;;
85377;SDS011;75782;48.632;10.230;2024-02-26T11:15:28;10.27;;;6.37;;
85377;SDS011;75782;48.632;10.230;2024-02-26T11:17:56;8.90;;;6.40;;
85377;SDS011;75782;48.632;10.230;2024-02-26T11:20:22;5.80;;;5.10;;
85377;SDS011;75782;48.632;10.230;2024-02-26T11:22:49;8.13;;;6.00;;
85377;SDS011;75782;48.632;10.230;2024-02-26T11:25:15;5.30;;;4.40;;
85377;SDS011;75782;48.632;10.230;2024-02-26T11:27:44;5.53;;;4.63;;
85377;SDS011;75782;48.632;10.230;2024-02-26T11:30:12;4.63;;;4.00;;
85377;SDS011;75782;48.632;10.230;2024-02-26T11:32:38;4.50;;;3.80;;
85377;SDS011;75782;48.632;10.230;2024-02-26T11:35:05;4.10;;;3.43;;
85377;SDS011;75782;48.632;10.230;2024-02-26T11:37:31;4.40;;;4.00;;
85377;SDS011;75782;48.632;10.230;2024-02-26T11:39:59;5.30;;;4.70;;
85377;SDS011;75782;48.632;10.230;2024-02-26T11:42:26;7.80;;;5.77;;
85377;SDS011;75782;48.632;10.230;2024-02-26T11:44:52;5.57;;;4.97;;
85377;SDS011;75782;48.632;10.230;2024-02-26T11:47:20;7.10;;;5.00;;
85377;SDS011;75782;48.632;10.230;2024-02-26T11:49:46;6.50;;;5.27;;
85377;SDS011;75782;48.632;10.230;2024-02-26T11:52:13;6.13;;;5.00;;
85377;SDS011;75782;48.632;10.230;2024-02-26T11:54:47;6.40;;;5.30;;
85377;SDS011;75782;48.632;10.230;2024-02-26T11:59:52;10.10;;;6.70;;
85377;SDS011;75782;48.632;10.230;2024-02-26T12:04:57;9.33;;;6.27;;
85377;SDS011;75782;48.632;10.230;2024-02-26T12:07:23;11.73;;;5.67;;
85377;SDS011;75782;48.632;10.230;2024-02-26T12:09:50;7.90;;;5.70;;
85377;SDS011;75782;48.632;10.230;2024-02-26T12:12:18;8.40;;;5.90;;
85377;SDS011;75782;48.632;10.230;2024-02-26T12:14:50;8.27;;;6.00;;
85377;SDS011;75782;48.632;10.230;2024-02-26T12:17:19;8.63;;;6.00;;
85377;SDS011;75782;48.632;10.230;2024-02-26T12:19:45;7.77;;;6.30;;
85377;SDS011;75782;48.632;10.230;2024-02-26T12:22:13;8.63;;;7.63;;
85377;SDS011;75782;48.632;10.230;2024-02-26T12:24:40;12.13;;;8.43;;
85377;SDS011;75782;48.632;10.230;2024-02-26T12:27:07;12.93;;;9.57;;
85377;SDS011;75782;48.632;10.230;2024-02-26T12:29:34;16.30;;;9.17;;
85377;SDS011;75782;48.632;10.230;2024-02-26T12:32:00;9.30;;;7.90;;
85377;SDS011;75782;48.632;10.230;2024-02-26T12:34:27;7.77;;;6.97;;
85377;SDS011;75782;48.632;10.230;2024-02-26T12:36:53;9.13;;;7.30;;
85377;SDS011;75782;48.632;10.230;2024-02-26T12:39:20;9.37;;;7.60;;
85377;SDS011;75782;48.632;10.230;2024-02-26T12:41:47;9.87;;;7.50;;
85377;SDS011;75782;48.632;10.230;2024-02-26T12:44:15;13.20;;;7.47;;
85377;SDS011;75782;48.632;10.230;2024-02-26T12:46:43;9.13;;;7.53;;
85377;SDS011;75782;48.632;10.230;2024-02-26T12:49:17;7.50;;;6.47;;
85377;SDS011;75782;48.632;10.230;2024-02-26T12:51:44;11.40;;;7.70;;
85377;SDS011;75782;48.632;10.230;2024-02-26T12:54:10;14.90;;;6.97;;
85377;SDS011;75782;48.632;10.230;2024-02-26T12:56:37;14.20;;;7.70;;
85377;SDS011;75782;48.632;10.230;2024-02-26T12:59:03;9.03;;;6.40;;
85377;SDS011;75782;48.632;10.230;2024-02-26T13:01:30;8.40;;;7.10;;
85377;SDS011;75782;48.632;10.230;2024-02-26T13:03:58;11.80;;;8.50;;
85377;SDS011;75782;48.632;10.230;2024-02-26T13:06:25;12.57;;;8.97;;
85377;SDS011;75782;48.632;10.230;2024-02-26T13:08:56;9.97;;;8.87;;
85377;SDS011;75782;48.632;10.230;2024-02-26T13:11:19;10.20;;;8.33;;
85377;SDS011;75782;48.632;10.230;2024-02-26T13:13:47;10.50;;;7.80;;
85377;SDS011;75782;48.632;10.230;2024-02-26T13:16:13;12.17;;;8.23;;
85377;SDS011;75782;48.632;10.230;2024-02-26T13:18:40;12.37;;;8.40;;
85377;SDS011;75782;48.632;10.230;2024-02-26T13:21:07;9.70;;;8.10;;
85377;SDS011;75782;48.632;10.230;2024-02-26T13:23:34;16.30;;;8.60;;
85377;SDS011;75782;48.632;10.230;2024-02-26T13:26:00;11.83;;;8.67;;
85377;SDS011;75782;48.632;10.230;2024-02-26T13:28:27;11.00;;;8.50;;
85377;SDS011;75782;48.632;10.230;2024-02-26T13:30:54;9.83;;;8.00;;
85377;SDS011;75782;48.632;10.230;2024-02-26T13:33:23;9.23;;;8.23;;
85377;SDS011;75782;48.632;10.230;2024-02-26T13:35:50;14.53;;;8.17;;
85377;SDS011;75782;48.632;10.230;2024-02-26T13:38:18;11.10;;;6.93;;
85377;SDS011;75782;48.632;10.230;2024-02-26T13:40:45;9.43;;;7.67;;
85377;SDS011;75782;48.632;10.230;2024-02-26T13:43:12;12.57;;;9.00;;
85377;SDS011;75782;48.632;10.230;2024-02-26T13:45:39;11.30;;;8.00;;
85377;SDS011;75782;48.632;10.230;2024-02-26T13:48:07;11.33;;;7.80;;
85377;SDS011;75782;48.632;10.230;2024-02-26T13:50:32;9.77;;;8.30;;
85377;SDS011;75782;48.632;10.230;2024-02-26T13:52:59;9.77;;;7.57;;
85377;SDS011;75782;48.632;10.230;2024-02-26T13:55:26;10.77;;;8.13;;
85377;SDS011;75782;48.632;10.230;2024-02-26T13:57:53;13.07;;;7.67;;
85377;SDS011;75782;48.632;10.230;2024-02-26T14:00:19;7.83;;;6.93;;
85377;SDS011;75782;48.632;10.230;2024-02-26T14:02:46;9.30;;;7.03;;
85377;SDS011;75782;48.632;10.230;2024-02-26T14:05:12;13.93;;;8.30;;
85377;SDS011;75782;48.632;10.230;2024-02-26T14:07:39;12.70;;;9.00;;
85377;SDS011;75782;48.632;10.230;2024-02-26T14:10:06;8.27;;;7.00;;
85377;SDS011;75782;48.632;10.230;2024-02-26T14:12:33;9.50;;;7.60;;
85377;SDS011;75782;48.632;10.230;2024-02-26T14:15:00;9.50;;;7.27;;
85377;SDS011;75782;48.632;10.230;2024-02-26T14:17:27;11.73;;;7.27;;
85377;SDS011;75782;48.632;10.230;2024-02-26T14:19:54;9.00;;;7.03;;
85377;SDS011;75782;48.632;10.230;2024-02-26T14:22:22;13.83;;;7.53;;
85377;SDS011;75782;48.632;10.230;2024-02-26T14:24:49;10.37;;;7.33;;
85377;SDS011;75782;48.632;10.230;2024-02-26T14:27:18;10.83;;;7.10;;